sensor_id;sensor_type;location;lat;lon;timestamp;pressure;altitude;pressure_sealevel;temperature;humidity
74659;BME280;63186;51.204;6.536;2023-08-07T00:02:20;100820.31;;;11.75;100.00
74659;BME280;63186;51.204;6.536;2023-08-07T00:04:45;100812.97;;;11.71;100.00
74659;BME280;63186;51.204;6.536;2023-08-07T00:07:11;100814.94;;;11.70;100.00
74659;BME280;63186;51.204;6.536;2023-08-07T00:09:36;100816.22;;;11.73;100.00
74659;BME280;63186;51.204;6.536;2023-08-07T00:12:01;100814.81;;;11.75;100.00
74659;BME280;63186;51.204;6.536;2023-08-07T00:14:28;100817.44;;;11.80;100.00
74659;BME280;63186;51.204;6.536;2023-08-07T00:16:53;100826.72;;;11.84;100.00
74659;BME280;63186;51.204;6.536;2023-08-07T00:19:18;100818.78;;;11.91;100.00
74659;BME280;63186;51.204;6.536;2023-08-07T00:21:44;100824.81;;;11.93;100.00
74659;BME280;63186;51.204;6.536;2023-08-07T00:24:09;100818.97;;;11.95;100.00
74659;BME280;63186;51.204;6.536;2023-08-07T00:26:34;100823.84;;;11.98;100.00
74659;BME280;63186;51.204;6.536;2023-08-07T00:28:59;100826.13;;;11.96;100.00
74659;BME280;63186;51.204;6.536;2023-08-07T00:31:25;100825.63;;;11.94;100.00
74659;BME280;63186;51.204;6.536;2023-08-07T00:33:50;100829.50;;;11.93;100.00
74659;BME280;63186;51.204;6.536;2023-08-07T00:36:19;100830.34;;;11.93;100.00
74659;BME280;63186;51.204;6.536;2023-08-07T00:38:44;100834.53;;;11.91;100.00
74659;BME280;63186;51.204;6.536;2023-08-07T00:41:09;100830.13;;;11.90;100.00
74659;BME280;63186;51.204;6.536;2023-08-07T00:43:35;100826.56;;;11.89;100.00
74659;BME280;63186;51.204;6.536;2023-08-07T00:46:01;100831.91;;;11.86;100.00
74659;BME280;63186;51.204;6.536;2023-08-07T00:48:26;100836.13;;;11.83;100.00
74659;BME280;63186;51.204;6.536;2023-08-07T00:50:52;100827.94;;;11.78;100.00
74659;BME280;63186;51.204;6.536;2023-08-07T00:53:18;100837.03;;;11.79;100.00
74659;BME280;63186;51.204;6.536;2023-08-07T00:55:44;100832.66;;;11.78;100.00
74659;BME280;63186;51.204;6.536;2023-08-07T00:58:11;100830.22;;;11.76;100.00
74659;BME280;63186;51.204;6.536;2023-08-07T01:00:37;100822.44;;;11.78;100.00
74659;BME280;63186;51.204;6.536;2023-08-07T01:03:05;100830.38;;;11.80;100.00
74659;BME280;63186;51.204;6.536;2023-08-07T01:05:31;100833.69;;;11.82;100.00
74659;BME280;63186;51.204;6.536;2023-08-07T01:07:57;100828.31;;;11.85;100.00
74659;BME280;63186;51.204;6.536;2023-08-07T01:10:40;100834.84;;;11.89;100.00
74659;BME280;63186;51.204;6.536;2023-08-07T01:13:18;100831.28;;;11.89;100.00
74659;BME280;63186;51.204;6.536;2023-08-07T01:15:46;100833.72;;;11.90;100.00
74659;BME280;63186;51.204;6.536;2023-08-07T01:18:14;100840.53;;;11.93;100.00
74659;BME280;63186;51.204;6.536;2023-08-07T01:20:40;100845.56;;;11.91;100.00
74659;BME280;63186;51.204;6.536;2023-08-07T01:23:06;100843.13;;;11.89;100.00
74659;BME280;63186;51.204;6.536;2023-08-07T01:25:31;100840.97;;;11.86;100.00
74659;BME280;63186;51.204;6.536;2023-08-07T01:28:06;100840.16;;;11.86;100.00
74659;BME280;63186;51.204;6.536;2023-08-07T01:30:39;100845.69;;;11.86;100.00
74659;BME280;63186;51.204;6.536;2023-08-07T01:33:24;100845.41;;;11.87;100.00
74659;BME280;63186;51.204;6.536;2023-08-07T01:35:53;100840.97;;;11.86;100.00
74659;BME280;63186;51.204;6.536;2023-08-07T01:38:24;100847.63;;;11.85;100.00
74659;BME280;63186;51.204;6.536;2023-08-07T01:40:50;100845.00;;;11.80;100.00
74659;BME280;63186;51.204;6.536;2023-08-07T01:43:16;100855.19;;;11.80;100.00
74659;BME280;63186;51.204;6.536;2023-08-07T01:45:42;100858.94;;;11.75;100.00
74659;BME280;63186;51.204;6.536;2023-08-07T01:48:07;100854.03;;;11.72;100.00
74659;BME280;63186;51.204;6.536;2023-08-07T01:50:32;100852.25;;;11.67;100.00
74659;BME280;63186;51.204;6.536;2023-08-07T01:52:58;100848.28;;;11.60;100.00
74659;BME280;63186;51.204;6.536;2023-08-07T01:55:23;100863.88;;;11.64;100.00
74659;BME280;63186;51.204;6.536;2023-08-07T01:57:49;100853.66;;;11.65;100.00
74659;BME280;63186;51.204;6.536;2023-08-07T02:00:14;100863.06;;;11.64;100.00
74659;BME280;63186;51.204;6.536;2023-08-07T02:02:39;100856.41;;;11.65;100.00
74659;BME280;63186;51.204;6.536;2023-08-07T02:05:05;100846.84;;;11.62;100.00
74659;BME280;63186;51.204;6.536;2023-08-07T02:07:31;100858.22;;;11.61;100.00
74659;BME280;63186;51.204;6.536;2023-08-07T02:09:57;100856.41;;;11.65;100.00
74659;BME280;63186;51.204;6.536;2023-08-07T02:12:22;100858.38;;;11.64;100.00
74659;BME280;63186;51.204;6.536;2023-08-07T02:14:47;100861.63;;;11.66;100.00
74659;BME280;63186;51.204;6.536;2023-08-07T02:17:13;100860.81;;;11.66;100.00
74659;BME280;63186;51.204;6.536;2023-08-07T02:19:38;100868.47;;;11.69;100.00
74659;BME280;63186;51.204;6.536;2023-08-07T02:22:03;100858.56;;;11.68;100.00
74659;BME280;63186;51.204;6.536;2023-08-07T02:24:29;100867.66;;;11.68;100.00
74659;BME280;63186;51.204;6.536;2023-08-07T02:26:54;100866.53;;;11.69;100.00
74659;BME280;63186;51.204;6.536;2023-08-07T02:29:19;100861.00;;;11.69;100.00
74659;BME280;63186;51.204;6.536;2023-08-07T02:31:45;100870.69;;;11.67;100.00
74659;BME280;63186;51.204;6.536;2023-08-07T02:34:10;100872.84;;;11.70;100.00
74659;BME280;63186;51.204;6.536;2023-08-07T02:36:35;100870.91;;;11.71;100.00
74659;BME280;63186;51.204;6.536;2023-08-07T02:39:00;100880.31;;;11.69;100.00
74659;BME280;63186;51.204;6.536;2023-08-07T02:41:26;100880.31;;;11.69;100.00
74659;BME280;63186;51.204;6.536;2023-08-07T02:43:51;100876.41;;;11.71;100.00
74659;BME280;63186;51.204;6.536;2023-08-07T02:46:16;100878.03;;;11.72;100.00
74659;BME280;63186;51.204;6.536;2023-08-07T02:48:43;100877.22;;;11.71;100.00
74659;BME280;63186;51.204;6.536;2023-08-07T02:51:09;100871.22;;;11.69;100.00
74659;BME280;63186;51.204;6.536;2023-08-07T02:53:34;100868.47;;;11.69;100.00
74659;BME280;63186;51.204;6.536;2023-08-07T02:55:59;100872.53;;;11.72;100.00
74659;BME280;63186;51.204;6.536;2023-08-07T02:58:25;100879.66;;;11.73;100.00
74659;BME280;63186;51.204;6.536;2023-08-07T03:00:50;100876.59;;;11.74;100.00
74659;BME280;63186;51.204;6.536;2023-08-07T03:03:15;100886.81;;;11.74;100.00
74659;BME280;63186;51.204;6.536;2023-08-07T03:05:50;100879.38;;;11.74;100.00
74659;BME280;63186;51.204;6.536;2023-08-07T03:08:16;100880.47;;;11.73;100.00
74659;BME280;63186;51.204;6.536;2023-08-07T03:10:41;100872.84;;;11.70;100.00
74659;BME280;63186;51.204;6.536;2023-08-07T03:13:07;100874.78;;;11.69;100.00
74659;BME280;63186;51.204;6.536;2023-08-07T03:15:32;100882.06;;;11.65;100.00
74659;BME280;63186;51.204;6.536;2023-08-07T03:17:57;100879.28;;;11.65;100.00
74659;BME280;63186;51.204;6.536;2023-08-07T03:20:23;100882.88;;;11.66;100.00
74659;BME280;63186;51.204;6.536;2023-08-07T03:22:48;100884.81;;;11.65;100.00
74659;BME280;63186;51.204;6.536;2023-08-07T03:25:13;100879.28;;;11.65;100.00
74659;BME280;63186;51.204;6.536;2023-08-07T03:27:38;100875.25;;;11.63;100.00
74659;BME280;63186;51.204;6.536;2023-08-07T03:30:04;100872.28;;;11.59;100.00
74659;BME280;63186;51.204;6.536;2023-08-07T03:32:30;100871.34;;;11.64;100.00
74659;BME280;63186;51.204;6.536;2023-08-07T03:34:55;100878.47;;;11.65;100.00
74659;BME280;63186;51.204;6.536;2023-08-07T03:37:20;100878.97;;;11.67;100.00
74659;BME280;63186;51.204;6.536;2023-08-07T03:39:45;100876.22;;;11.67;100.00
74659;BME280;63186;51.204;6.536;2023-08-07T03:42:13;100871.84;;;11.66;100.00
74659;BME280;63186;51.204;6.536;2023-08-07T03:44:39;100882.25;;;11.69;100.00
74659;BME280;63186;51.204;6.536;2023-08-07T03:47:05;100887.25;;;11.67;100.00
74659;BME280;63186;51.204;6.536;2023-08-07T03:49:30;100882.56;;;11.67;100.00
74659;BME280;63186;51.204;6.536;2023-08-07T03:51:55;100876.22;;;11.67;100.00
74659;BME280;63186;51.204;6.536;2023-08-07T03:54:21;100880.09;;;11.66;100.00
74659;BME280;63186;51.204;6.536;2023-08-07T03:56:46;100876.06;;;11.63;100.00
74659;BME280;63186;51.204;6.536;2023-08-07T03:59:12;100879.13;;;11.62;100.00
74659;BME280;63186;51.204;6.536;2023-08-07T04:01:37;100881.88;;;11.62;100.00
74659;BME280;63186;51.204;6.536;2023-08-07T04:04:02;100883.31;;;11.59;100.00
74659;BME280;63186;51.204;6.536;2023-08-07T04:06:28;100880.44;;;11.64;100.00
74659;BME280;63186;51.204;6.536;2023-08-07T04:08:53;100877.66;;;11.64;100.00
74659;BME280;63186;51.204;6.536;2023-08-07T04:11:19;100888.38;;;11.66;100.00
74659;BME280;63186;51.204;6.536;2023-08-07T04:13:44;100882.06;;;11.65;100.00
74659;BME280;63186;51.204;6.536;2023-08-07T04:16:09;100894.72;;;11.66;100.00
74659;BME280;63186;51.204;6.536;2023-08-07T04:18:35;100889.19;;;11.66;100.00
74659;BME280;63186;51.204;6.536;2023-08-07T04:21:00;100881.44;;;11.68;100.00
74659;BME280;63186;51.204;6.536;2023-08-07T04:23:26;100884.69;;;11.71;100.00
74659;BME280;63186;51.204;6.536;2023-08-07T04:25:52;100883.56;;;11.72;100.00
74659;BME280;63186;51.204;6.536;2023-08-07T04:28:17;100888.75;;;11.73;100.00
74659;BME280;63186;51.204;6.536;2023-08-07T04:30:44;100890.69;;;11.73;100.00
74659;BME280;63186;51.204;6.536;2023-08-07T04:33:10;100889.06;;;11.72;100.00
74659;BME280;63186;51.204;6.536;2023-08-07T04:35:35;100889.59;;;11.74;100.00
74659;BME280;63186;51.204;6.536;2023-08-07T04:38:01;100887.31;;;11.76;100.00
74659;BME280;63186;51.204;6.536;2023-08-07T04:40:27;100897.22;;;11.77;100.00
74659;BME280;63186;51.204;6.536;2023-08-07T04:42:53;100898.84;;;11.78;100.00
74659;BME280;63186;51.204;6.536;2023-08-07T04:45:18;100887.31;;;11.76;100.00
74659;BME280;63186;51.204;6.536;2023-08-07T04:47:43;100888.94;;;11.77;100.00
74659;BME280;63186;51.204;6.536;2023-08-07T04:50:09;100891.38;;;11.78;100.00
74659;BME280;63186;51.204;6.536;2023-08-07T04:52:35;100888.03;;;11.81;100.00
74659;BME280;63186;51.204;6.536;2023-08-07T04:55:00;100884.72;;;11.79;100.00
74659;BME280;63186;51.204;6.536;2023-08-07T04:57:26;100895.50;;;11.81;100.00
74659;BME280;63186;51.204;6.536;2023-08-07T04:59:52;100889.13;;;11.80;100.00
74659;BME280;63186;51.204;6.536;2023-08-07T05:02:17;100890.16;;;11.84;100.00
74659;BME280;63186;51.204;6.536;2023-08-07T05:04:43;100900.84;;;11.86;100.00
74659;BME280;63186;51.204;6.536;2023-08-07T05:07:08;100904.75;;;11.85;100.00
74659;BME280;63186;51.204;6.536;2023-08-07T05:09:33;100902.81;;;11.85;100.00
74659;BME280;63186;51.204;6.536;2023-08-07T05:11:58;100903.31;;;11.87;100.00
74659;BME280;63186;51.204;6.536;2023-08-07T05:14:24;100905.75;;;11.89;100.00
74659;BME280;63186;51.204;6.536;2023-08-07T05:16:49;100911.28;;;11.89;100.00
74659;BME280;63186;51.204;6.536;2023-08-07T05:19:14;100904.94;;;11.88;100.00
74659;BME280;63186;51.204;6.536;2023-08-07T05:21:39;100910.13;;;11.90;100.00
74659;BME280;63186;51.204;6.536;2023-08-07T05:24:04;100906.25;;;11.91;100.00
74659;BME280;63186;51.204;6.536;2023-08-07T05:26:30;100914.53;;;11.91;100.00
74659;BME280;63186;51.204;6.536;2023-08-07T05:28:56;100907.88;;;11.92;100.00
74659;BME280;63186;51.204;6.536;2023-08-07T05:31:23;100908.69;;;11.92;100.00
74659;BME280;63186;51.204;6.536;2023-08-07T05:33:49;100913.38;;;11.92;100.00
74659;BME280;63186;51.204;6.536;2023-08-07T05:36:14;100917.16;;;11.96;100.00
74659;BME280;63186;51.204;6.536;2023-08-07T05:38:42;100915.22;;;11.97;100.00
74659;BME280;63186;51.204;6.536;2023-08-07T05:41:08;100910.50;;;11.97;100.00
74659;BME280;63186;51.204;6.536;2023-08-07T05:43:34;100907.88;;;11.92;100.00
74659;BME280;63186;51.204;6.536;2023-08-07T05:45:59;100910.94;;;11.90;100.00
74659;BME280;63186;51.204;6.536;2023-08-07T05:48:25;100911.88;;;11.86;100.00
74659;BME280;63186;51.204;6.536;2023-08-07T05:50:51;100911.59;;;11.87;100.00
74659;BME280;63186;51.204;6.536;2023-08-07T05:53:17;100919.88;;;11.87;100.00
74659;BME280;63186;51.204;6.536;2023-08-07T05:55:42;100918.88;;;11.83;100.00
74659;BME280;63186;51.204;6.536;2023-08-07T05:58:08;100926.09;;;11.79;100.00
74659;BME280;63186;51.204;6.536;2023-08-07T06:00:33;100922.84;;;11.77;100.00
74659;BME280;63186;51.204;6.536;2023-08-07T06:02:58;100928.84;;;11.79;100.00
74659;BME280;63186;51.204;6.536;2023-08-07T06:05:24;100941.03;;;11.78;100.00
74659;BME280;63186;51.204;6.536;2023-08-07T06:07:49;100939.41;;;11.77;100.00
74659;BME280;63186;51.204;6.536;2023-08-07T06:10:15;100935.03;;;11.76;100.00
74659;BME280;63186;51.204;6.536;2023-08-07T06:12:40;100943.78;;;11.78;100.00
74659;BME280;63186;51.204;6.536;2023-08-07T06:15:06;100942.66;;;11.79;100.00
74659;BME280;63186;51.204;6.536;2023-08-07T06:17:31;100948.72;;;11.81;100.00
74659;BME280;63186;51.204;6.536;2023-08-07T06:19:57;100951.53;;;11.90;100.00
74659;BME280;63186;51.204;6.536;2023-08-07T06:22:22;100942.91;;;11.91;100.00
74659;BME280;63186;51.204;6.536;2023-08-07T06:24:47;100950.50;;;11.86;100.00
74659;BME280;63186;51.204;6.536;2023-08-07T06:27:13;100956.44;;;11.79;100.00
74659;BME280;63186;51.204;6.536;2023-08-07T06:29:39;100964.53;;;11.76;100.00
74659;BME280;63186;51.204;6.536;2023-08-07T06:32:04;100952.06;;;11.78;100.00
74659;BME280;63186;51.204;6.536;2023-08-07T06:34:31;100971.47;;;11.73;100.00
74659;BME280;63186;51.204;6.536;2023-08-07T06:36:56;100973.75;;;11.71;100.00
74659;BME280;63186;51.204;6.536;2023-08-07T06:39:21;100985.09;;;11.69;100.00
74659;BME280;63186;51.204;6.536;2023-08-07T06:41:46;100985.09;;;11.69;100.00
74659;BME280;63186;51.204;6.536;2023-08-07T06:44:12;100979.91;;;11.68;100.00
74659;BME280;63186;51.204;6.536;2023-08-07T06:46:37;100982.47;;;11.64;100.00
74659;BME280;63186;51.204;6.536;2023-08-07T06:49:02;100983.28;;;11.65;100.00
74659;BME280;63186;51.204;6.536;2023-08-07T06:51:27;100988.63;;;11.61;100.00
74659;BME280;63186;51.204;6.536;2023-08-07T06:53:53;100989.44;;;11.62;100.00
74659;BME280;63186;51.204;6.536;2023-08-07T06:56:18;100991.38;;;11.61;100.00
74659;BME280;63186;51.204;6.536;2023-08-07T06:58:43;100996.75;;;11.66;100.00
74659;BME280;63186;51.204;6.536;2023-08-07T07:01:09;101005.59;;;11.77;100.00
74659;BME280;63186;51.204;6.536;2023-08-07T07:03:34;101002.09;;;11.85;100.00
74659;BME280;63186;51.204;6.536;2023-08-07T07:05:59;101009.44;;;11.90;100.00
74659;BME280;63186;51.204;6.536;2023-08-07T07:08:25;101004.13;;;11.93;100.00
74659;BME280;63186;51.204;6.536;2023-08-07T07:10:50;100995.88;;;11.93;100.00
74659;BME280;63186;51.204;6.536;2023-08-07T07:13:15;101012.41;;;11.93;100.00
74659;BME280;63186;51.204;6.536;2023-08-07T07:15:40;101009.34;;;11.95;100.00
74659;BME280;63186;51.204;6.536;2023-08-07T07:18:06;101008.19;;;11.96;100.00
74659;BME280;63186;51.204;6.536;2023-08-07T07:20:31;100998.66;;;12.02;100.00
74659;BME280;63186;51.204;6.536;2023-08-07T07:22:56;101006.81;;;12.07;100.00
74659;BME280;63186;51.204;6.536;2023-08-07T07:25:22;101019.03;;;12.15;100.00
74659;BME280;63186;51.204;6.536;2023-08-07T07:27:47;101033.00;;;12.18;100.00
74659;BME280;63186;51.204;6.536;2023-08-07T07:30:12;101031.59;;;12.21;100.00
74659;BME280;63186;51.204;6.536;2023-08-07T07:32:38;101030.44;;;12.22;100.00
74659;BME280;63186;51.204;6.536;2023-08-07T07:35:03;101041.66;;;12.26;100.00
74659;BME280;63186;51.204;6.536;2023-08-07T07:37:30;101042.78;;;12.25;100.00
74659;BME280;63186;51.204;6.536;2023-08-07T07:39:56;101043.47;;;12.30;100.00
74659;BME280;63186;51.204;6.536;2023-08-07T07:42:21;101036.81;;;12.31;100.00
74659;BME280;63186;51.204;6.536;2023-08-07T07:44:46;101054.72;;;12.34;100.00
74659;BME280;63186;51.204;6.536;2023-08-07T07:47:11;101045.91;;;12.32;100.00
74659;BME280;63186;51.204;6.536;2023-08-07T07:49:37;101047.56;;;12.33;100.00
74659;BME280;63186;51.204;6.536;2023-08-07T07:52:02;101057.03;;;12.40;100.00
74659;BME280;63186;51.204;6.536;2023-08-07T07:54:28;101066.28;;;12.44;100.00
74659;BME280;63186;51.204;6.536;2023-08-07T07:56:54;101058.53;;;12.46;100.00
74659;BME280;63186;51.204;6.536;2023-08-07T07:59:19;101072.69;;;12.54;100.00
74659;BME280;63186;51.204;6.536;2023-08-07T08:01:44;101070.91;;;12.58;100.00
74659;BME280;63186;51.204;6.536;2023-08-07T08:04:09;101077.00;;;12.68;100.00
74659;BME280;63186;51.204;6.536;2023-08-07T08:06:35;101078.81;;;12.73;100.00
74659;BME280;63186;51.204;6.536;2023-08-07T08:09:00;101076.91;;;12.82;100.00
74659;BME280;63186;51.204;6.536;2023-08-07T08:11:30;101081.34;;;12.92;100.00
74659;BME280;63186;51.204;6.536;2023-08-07T08:13:55;101082.19;;;13.01;100.00
74659;BME280;63186;51.204;6.536;2023-08-07T08:16:20;101087.78;;;13.18;100.00
74659;BME280;63186;51.204;6.536;2023-08-07T08:18:46;101090.41;;;13.23;100.00
74659;BME280;63186;51.204;6.536;2023-08-07T08:21:11;101100.34;;;13.24;100.00
74659;BME280;63186;51.204;6.536;2023-08-07T08:23:36;101100.97;;;13.21;100.00
74659;BME280;63186;51.204;6.536;2023-08-07T08:26:02;101105.72;;;13.29;100.00
74659;BME280;63186;51.204;6.536;2023-08-07T08:28:27;101099.41;;;13.38;100.00
74659;BME280;63186;51.204;6.536;2023-08-07T08:30:52;101105.47;;;13.57;100.00
74659;BME280;63186;51.204;6.536;2023-08-07T08:33:18;101096.50;;;13.60;100.00
74659;BME280;63186;51.204;6.536;2023-08-07T08:35:43;101096.38;;;13.65;100.00
74659;BME280;63186;51.204;6.536;2023-08-07T08:38:09;101106.44;;;13.61;100.00
74659;BME280;63186;51.204;6.536;2023-08-07T08:40:35;101111.50;;;13.59;100.00
74659;BME280;63186;51.204;6.536;2023-08-07T08:43:04;101108.38;;;13.52;100.00
74659;BME280;63186;51.204;6.536;2023-08-07T08:45:30;101112.56;;;13.41;100.00
74659;BME280;63186;51.204;6.536;2023-08-07T08:48:01;101121.84;;;13.36;100.00
74659;BME280;63186;51.204;6.536;2023-08-07T08:50:28;101118.25;;;13.36;100.00
74659;BME280;63186;51.204;6.536;2023-08-07T08:52:55;101132.81;;;13.58;100.00
74659;BME280;63186;51.204;6.536;2023-08-07T08:55:21;101129.72;;;13.69;100.00
74659;BME280;63186;51.204;6.536;2023-08-07T08:57:47;101140.31;;;13.75;100.00
74659;BME280;63186;51.204;6.536;2023-08-07T09:00:14;101142.97;;;13.98;100.00
74659;BME280;63186;51.204;6.536;2023-08-07T09:02:45;101134.00;;;14.18;100.00
74659;BME280;63186;51.204;6.536;2023-08-07T09:05:10;101142.47;;;14.30;100.00
74659;BME280;63186;51.204;6.536;2023-08-07T09:07:37;101154.69;;;14.47;100.00
74659;BME280;63186;51.204;6.536;2023-08-07T09:10:03;101154.53;;;14.34;100.00
74659;BME280;63186;51.204;6.536;2023-08-07T09:12:29;101153.22;;;14.32;100.00
74659;BME280;63186;51.204;6.536;2023-08-07T09:14:57;101159.56;;;14.32;100.00
74659;BME280;63186;51.204;6.536;2023-08-07T09:17:24;101154.84;;;14.33;100.00
74659;BME280;63186;51.204;6.536;2023-08-07T09:19:52;101161.03;;;14.64;100.00
74659;BME280;63186;51.204;6.536;2023-08-07T09:22:18;101150.91;;;16.67;90.72
74659;BME280;63186;51.204;6.536;2023-08-07T09:24:44;101151.53;;;17.42;84.26
74659;BME280;63186;51.204;6.536;2023-08-07T09:27:09;101157.50;;;17.07;85.42
74659;BME280;63186;51.204;6.536;2023-08-07T09:29:35;101166.78;;;17.12;86.61
74659;BME280;63186;51.204;6.536;2023-08-07T09:32:21;101164.13;;;17.27;86.31
74659;BME280;63186;51.204;6.536;2023-08-07T09:34:49;101164.97;;;17.28;82.71
74659;BME280;63186;51.204;6.536;2023-08-07T09:37:15;101168.75;;;17.11;88.94
74659;BME280;63186;51.204;6.536;2023-08-07T09:39:40;101169.84;;;17.31;85.61
74659;BME280;63186;51.204;6.536;2023-08-07T09:42:16;101160.34;;;17.56;82.20
74659;BME280;63186;51.204;6.536;2023-08-07T09:44:43;101171.09;;;17.33;81.05
74659;BME280;63186;51.204;6.536;2023-08-07T09:47:16;101170.72;;;18.21;77.53
74659;BME280;63186;51.204;6.536;2023-08-07T09:49:43;101173.81;;;18.87;78.18
74659;BME280;63186;51.204;6.536;2023-08-07T09:52:10;101172.41;;;19.41;70.68
74659;BME280;63186;51.204;6.536;2023-08-07T09:54:36;101171.16;;;19.54;76.53
74659;BME280;63186;51.204;6.536;2023-08-07T09:57:02;101173.50;;;19.52;68.21
74659;BME280;63186;51.204;6.536;2023-08-07T09:59:28;101165.31;;;19.43;70.32
74659;BME280;63186;51.204;6.536;2023-08-07T10:01:54;101173.97;;;19.70;71.51
74659;BME280;63186;51.204;6.536;2023-08-07T10:04:21;101160.44;;;19.72;71.79
74659;BME280;63186;51.204;6.536;2023-08-07T10:06:46;101166.03;;;19.72;69.73
74659;BME280;63186;51.204;6.536;2023-08-07T10:09:12;101167.91;;;19.05;66.42
74659;BME280;63186;51.204;6.536;2023-08-07T10:11:38;101178.09;;;19.29;69.57
74659;BME280;63186;51.204;6.536;2023-08-07T10:14:04;101179.91;;;19.37;66.36
74659;BME280;63186;51.204;6.536;2023-08-07T10:16:30;101186.56;;;19.32;68.73
74659;BME280;63186;51.204;6.536;2023-08-07T10:18:55;101172.94;;;18.99;69.36
74659;BME280;63186;51.204;6.536;2023-08-07T10:21:21;101173.41;;;19.01;68.75
74659;BME280;63186;51.204;6.536;2023-08-07T10:23:51;101164.94;;;19.13;66.51
74659;BME280;63186;51.204;6.536;2023-08-07T10:26:18;101164.69;;;19.50;68.11
74659;BME280;63186;51.204;6.536;2023-08-07T10:28:45;101159.50;;;19.84;67.79
74659;BME280;63186;51.204;6.536;2023-08-07T10:31:12;101167.47;;;19.66;63.04
74659;BME280;63186;51.204;6.536;2023-08-07T10:33:38;101168.25;;;19.82;64.48
74659;BME280;63186;51.204;6.536;2023-08-07T10:36:08;101167.72;;;19.76;66.63
74659;BME280;63186;51.204;6.536;2023-08-07T10:38:35;101159.84;;;19.98;65.57
74659;BME280;63186;51.204;6.536;2023-08-07T10:41:14;101156.94;;;19.94;61.20
74659;BME280;63186;51.204;6.536;2023-08-07T10:43:44;101170.13;;;20.13;63.24
74659;BME280;63186;51.204;6.536;2023-08-07T10:46:12;101172.09;;;20.28;56.63
74659;BME280;63186;51.204;6.536;2023-08-07T10:48:44;101161.63;;;20.25;55.51
74659;BME280;63186;51.204;6.536;2023-08-07T10:51:13;101175.16;;;20.23;55.95
74659;BME280;63186;51.204;6.536;2023-08-07T10:53:41;101174.91;;;20.48;56.13
74659;BME280;63186;51.204;6.536;2023-08-07T10:56:10;101183.09;;;20.41;55.75
74659;BME280;63186;51.204;6.536;2023-08-07T10:58:38;101176.19;;;20.15;56.48
74659;BME280;63186;51.204;6.536;2023-08-07T11:04:05;101198.94;;;20.33;57.15
74659;BME280;63186;51.204;6.536;2023-08-07T11:06:33;101195.56;;;20.08;56.47
74659;BME280;63186;51.204;6.536;2023-08-07T11:09:00;101195.31;;;19.78;54.64
74659;BME280;63186;51.204;6.536;2023-08-07T11:11:29;101201.91;;;19.70;55.18
74659;BME280;63186;51.204;6.536;2023-08-07T11:13:55;101205.75;;;19.65;54.89
74659;BME280;63186;51.204;6.536;2023-08-07T11:16:21;101195.22;;;19.59;53.55
74659;BME280;63186;51.204;6.536;2023-08-07T11:18:47;101197.22;;;19.58;54.83
74659;BME280;63186;51.204;6.536;2023-08-07T11:21:12;101191.78;;;19.34;55.11
74659;BME280;63186;51.204;6.536;2023-08-07T11:23:39;101197.38;;;19.34;56.07
74659;BME280;63186;51.204;6.536;2023-08-07T11:26:04;101197.97;;;19.43;55.11
74659;BME280;63186;51.204;6.536;2023-08-07T11:28:30;101195.50;;;19.69;56.51
74659;BME280;63186;51.204;6.536;2023-08-07T11:30:56;101186.00;;;19.74;55.73
74659;BME280;63186;51.204;6.536;2023-08-07T11:33:23;101193.91;;;19.88;54.99
74659;BME280;63186;51.204;6.536;2023-08-07T11:35:52;101199.44;;;19.52;56.01
74659;BME280;63186;51.204;6.536;2023-08-07T11:38:33;101191.06;;;19.21;56.42
74659;BME280;63186;51.204;6.536;2023-08-07T11:41:02;101212.66;;;19.08;56.63
74659;BME280;63186;51.204;6.536;2023-08-07T11:43:29;101196.13;;;19.31;55.96
74659;BME280;63186;51.204;6.536;2023-08-07T11:45:56;101195.78;;;19.64;54.55
74659;BME280;63186;51.204;6.536;2023-08-07T11:48:29;101200.44;;;20.11;53.15
74659;BME280;63186;51.204;6.536;2023-08-07T11:50:56;101199.53;;;20.42;50.94
74659;BME280;63186;51.204;6.536;2023-08-07T11:53:22;101202.88;;;20.48;50.60
74659;BME280;63186;51.204;6.536;2023-08-07T11:55:53;101198.13;;;20.91;52.48
74659;BME280;63186;51.204;6.536;2023-08-07T11:58:20;101199.19;;;21.05;50.98
74659;BME280;63186;51.204;6.536;2023-08-07T12:00:46;101197.84;;;20.76;49.06
74659;BME280;63186;51.204;6.536;2023-08-07T12:03:28;101208.88;;;19.95;48.65
74659;BME280;63186;51.204;6.536;2023-08-07T12:05:58;101205.19;;;19.75;49.85
74659;BME280;63186;51.204;6.536;2023-08-07T12:08:24;101198.25;;;19.53;49.07
74659;BME280;63186;51.204;6.536;2023-08-07T12:10:51;101207.44;;;19.22;52.40
74659;BME280;63186;51.204;6.536;2023-08-07T12:13:19;101213.03;;;19.54;52.79
74659;BME280;63186;51.204;6.536;2023-08-07T12:15:44;101207.13;;;19.71;51.11
74659;BME280;63186;51.204;6.536;2023-08-07T12:18:10;101196.81;;;19.75;47.23
74659;BME280;63186;51.204;6.536;2023-08-07T12:20:37;101198.69;;;19.87;48.53
74659;BME280;63186;51.204;6.536;2023-08-07T12:23:02;101204.44;;;19.94;50.38
74659;BME280;63186;51.204;6.536;2023-08-07T12:25:27;101193.44;;;20.01;48.23
74659;BME280;63186;51.204;6.536;2023-08-07T12:27:53;101198.84;;;20.10;47.04
74659;BME280;63186;51.204;6.536;2023-08-07T12:30:18;101202.72;;;20.05;48.97
74659;BME280;63186;51.204;6.536;2023-08-07T12:32:43;101204.09;;;19.96;48.72
74659;BME280;63186;51.204;6.536;2023-08-07T12:35:08;101202.13;;;19.96;48.70
74659;BME280;63186;51.204;6.536;2023-08-07T12:37:34;101203.38;;;19.99;50.73
74659;BME280;63186;51.204;6.536;2023-08-07T12:39:59;101206.81;;;19.92;51.03
74659;BME280;63186;51.204;6.536;2023-08-07T12:42:24;101208.75;;;20.08;49.76